Time;durP1;ratioP1;P1;durP2;ratioP2;P2;SDS_P1;SDS_P2;PMS_P1;PMS_P2;Temp;Humidity;BMP_temperature;BMP_pressure;BME280_temperature;BME280_humidity;BME280_pressure;Samples;Min_cycle;Max_cycle;Signal;HPM_P1;HPM_P2
2021/01/27 00:01:12;;;;;;;5.47;4.93;;;2.60;99.90;;;;;;5004543;28;20169;-83
2021/01/27 00:03:38;;;;;;;4.03;3.73;;;2.80;99.90;;;;;;5033688;28;20231;-83
2021/01/27 00:06:08;;;;;;;7.97;4.43;;;2.80;99.90;;;;;;5011796;28;20937;-83
2021/01/27 00:08:33;;;;;;;10.03;3.90;;;2.70;99.90;;;;;;5000265;28;20394;-84
2021/01/27 00:10:59;;;;;;;6.13;3.90;;;2.70;99.90;;;;;;5005819;28;20389;-84
2021/01/27 00:13:25;;;;;;;4.90;4.50;;;2.80;99.90;;;;;;5035439;28;20210;-81
2021/01/27 00:15:51;;;;;;;5.13;4.63;;;2.60;99.90;;;;;;5037322;28;20173;-82
2021/01/27 00:18:18;;;;;;;4.40;4.10;;;2.50;99.90;;;;;;5037427;28;20174;-80
2021/01/27 00:20:44;;;;;;;8.07;4.60;;;2.70;99.90;;;;;;5036281;28;20165;-83
2021/01/27 00:23:12;;;;;;;4.83;4.00;;;2.70;99.90;;;;;;5001714;28;20751;-83
2021/01/27 00:25:38;;;;;;;10.23;4.20;;;2.60;99.90;;;;;;4999238;28;20201;-83
2021/01/27 00:28:07;;;;;;;7.83;3.90;;;2.60;99.90;;;;;;4999257;28;20472;-83
2021/01/27 00:30:36;;;;;;;4.37;4.00;;;2.60;99.90;;;;;;4999849;28;20772;-83
2021/01/27 00:33:03;;;;;;;9.20;5.27;;;2.50;99.90;;;;;;5031488;28;20496;-83
2021/01/27 00:35:31;;;;;;;5.67;4.67;;;2.60;99.90;;;;;;5027852;28;20408;-82
2021/01/27 00:37:59;;;;;;;5.97;5.00;;;2.40;99.90;;;;;;5017455;28;20382;-83
2021/01/27 00:40:25;;;;;;;4.77;4.30;;;2.40;99.90;;;;;;5016892;28;20432;-80
2021/01/27 00:42:54;;;;;;;4.60;3.57;;;2.50;99.90;;;;;;5017249;28;20412;-83
2021/01/27 00:45:20;;;;;;;8.30;4.33;;;2.40;99.90;;;;;;5015907;28;20427;-82
2021/01/27 00:47:46;;;;;;;6.83;5.30;;;2.50;99.90;;;;;;5017580;28;20423;-84
2021/01/27 00:50:14;;;;;;;4.80;4.27;;;2.50;99.90;;;;;;5017921;28;20405;-83
2021/01/27 00:52:40;;;;;;;4.67;4.20;;;2.50;99.90;;;;;;5005568;28;20257;-83
2021/01/27 00:55:13;;;;;;;4.20;3.80;;;2.60;99.90;;;;;;4997916;28;20408;-82
2021/01/27 00:57:39;;;;;;;6.23;4.37;;;2.60;99.90;;;;;;4997771;28;20459;-82
2021/01/27 01:00:10;;;;;;;5.73;4.23;;;2.60;99.90;;;;;;4997608;28;20815;-80
2021/01/27 01:02:39;;;;;;;4.07;3.77;;;2.30;99.90;;;;;;4963557;28;20170;-82
2021/01/27 01:05:08;;;;;;;15.87;4.27;;;2.40;99.90;;;;;;4997702;28;20789;-81
2021/01/27 01:07:34;;;;;;;5.97;4.63;;;2.50;99.90;;;;;;4997452;28;20437;-81
2021/01/27 01:10:00;;;;;;;3.23;3.00;;;2.50;99.90;;;;;;4996890;28;20402;-81
2021/01/27 01:12:25;;;;;;;14.60;4.17;;;2.50;99.90;;;;;;4997199;28;20181;-82
2021/01/27 01:14:51;;;;;;;5.33;3.97;;;2.50;99.90;;;;;;4997078;28;20523;-82
2021/01/27 01:17:17;;;;;;;9.73;4.90;;;2.30;99.90;;;;;;4998265;28;20166;-81
2021/01/27 01:19:43;;;;;;;5.07;4.67;;;2.40;99.90;;;;;;4998811;28;20662;-81
2021/01/27 01:22:08;;;;;;;3.97;3.67;;;2.50;99.90;;;;;;5002063;28;20177;-83
2021/01/27 01:24:34;;;;;;;4.63;4.17;;;2.60;99.90;;;;;;5001477;28;20193;-81
2021/01/27 01:27:00;;;;;;;9.90;5.37;;;2.70;99.90;;;;;;5000580;28;20226;-81
2021/01/27 01:29:26;;;;;;;7.10;5.03;;;2.70;99.90;;;;;;5002518;28;20166;-82
2021/01/27 01:31:51;;;;;;;3.87;3.57;;;2.60;99.90;;;;;;5002955;28;20192;-81
2021/01/27 01:34:17;;;;;;;5.20;4.70;;;2.40;99.90;;;;;;5002535;28;20170;-81
2021/01/27 01:36:43;;;;;;;9.00;4.30;;;2.40;99.90;;;;;;5003277;28;20166;-82
2021/01/27 01:39:08;;;;;;;4.17;3.80;;;2.50;99.90;;;;;;5002574;28;20588;-82
2021/01/27 01:41:36;;;;;;;4.13;3.73;;;2.50;99.90;;;;;;5002761;28;20162;-82
2021/01/27 01:44:02;;;;;;;4.77;4.37;;;2.60;99.90;;;;;;5003081;28;20221;-81
2021/01/27 01:46:29;;;;;;;3.83;3.53;;;2.70;99.90;;;;;;5007987;28;20469;-80
2021/01/27 01:48:59;;;;;;;5.73;5.13;;;2.40;99.90;;;;;;5005721;28;20158;-81
2021/01/27 01:51:35;;;;;;;4.47;4.17;;;2.40;99.90;;;;;;5001752;28;20397;-82
2021/01/27 01:54:17;;;;;;;8.43;4.50;;;2.50;99.90;;;;;;4984520;28;20433;-81
2021/01/27 01:56:52;;;;;;;11.53;5.37;;;2.30;99.90;;;;;;4999368;28;20508;-81
2021/01/27 01:59:18;;;;;;;6.20;5.13;;;1.90;99.90;;;;;;4997870;28;20516;-81
2021/01/27 02:01:48;;;;;;;5.60;5.10;;;2.00;99.90;;;;;;4982930;28;20405;-83
2021/01/27 02:04:15;;;;;;;6.57;5.63;;;1.80;99.90;;;;;;5004623;28;20409;-82
2021/01/27 02:06:40;;;;;;;5.47;5.00;;;1.70;99.90;;;;;;5014915;28;20426;-83
2021/01/27 02:09:06;;;;;;;5.93;4.53;;;1.90;99.90;;;;;;5015117;28;20409;-82
2021/01/27 02:11:53;;;;;;;6.90;5.03;;;2.10;99.90;;;;;;5015271;28;20167;-82
2021/01/27 02:14:38;;;;;;;6.13;4.57;;;2.10;99.90;;;;;;4995931;28;20416;-82
2021/01/27 02:17:10;;;;;;;5.73;5.20;;;2.20;99.90;;;;;;4994248;28;20421;-82
2021/01/27 02:20:09;;;;;;;6.70;4.67;;;2.40;99.90;;;;;;4995028;28;20402;-82
2021/01/27 02:22:52;;;;;;;5.60;4.33;;;2.40;99.90;;;;;;5010597;28;20436;-83
2021/01/27 02:25:50;;;;;;;5.60;5.07;;;2.40;99.90;;;;;;5034530;28;20448;-82
2021/01/27 02:28:36;;;;;;;11.73;5.73;;;2.20;99.90;;;;;;5033495;28;20422;-82
2021/01/27 02:31:18;;;;;;;5.97;5.40;;;2.10;99.90;;;;;;5033717;28;20392;-82
2021/01/27 02:34:10;;;;;;;7.37;6.33;;;2.00;99.90;;;;;;5033564;28;20691;-82
2021/01/27 02:36:46;;;;;;;5.97;5.43;;;1.80;99.90;;;;;;5034089;28;20455;-82
2021/01/27 02:39:20;;;;;;;6.80;4.40;;;1.80;99.90;;;;;;5035505;28;20371;-82
2021/01/27 02:41:59;;;;;;;7.80;5.67;;;1.70;99.90;;;;;;5035660;28;20412;-82
2021/01/27 02:44:41;;;;;;;8.43;5.67;;;2.00;99.90;;;;;;5016077;28;20376;-82
2021/01/27 02:47:16;;;;;;;8.33;5.90;;;2.00;99.90;;;;;;5016165;28;20401;-82
2021/01/27 02:49:51;;;;;;;9.33;5.83;;;1.90;99.90;;;;;;5016149;28;20397;-82
2021/01/27 02:52:23;;;;;;;5.23;4.60;;;2.10;99.90;;;;;;5012492;28;20416;-81
2021/01/27 02:55:05;;;;;;;6.20;5.70;;;2.10;99.90;;;;;;5015781;28;20491;-82
2021/01/27 02:57:37;;;;;;;6.57;4.93;;;2.30;99.90;;;;;;5015186;28;20409;-82
2021/01/27 03:00:18;;;;;;;6.50;5.87;;;2.40;99.90;;;;;;5003689;28;20405;-82
2021/01/27 03:02:49;;;;;;;11.10;7.33;;;2.00;99.90;;;;;;4999871;28;20409;-82
2021/01/27 03:05:31;;;;;;;7.47;5.50;;;2.00;99.90;;;;;;4999162;28;20423;-83
2021/01/27 03:08:02;;;;;;;5.80;5.27;;;2.00;99.90;;;;;;4998762;28;20398;-83
2021/01/27 03:10:51;;;;;;;16.30;6.47;;;1.90;99.90;;;;;;4999075;28;20908;-82
2021/01/27 03:18:30;;;;;;;5.47;4.97;;;1.70;99.90;;;;;;5911951;22;20445;-82
2021/01/27 03:21:04;;;;;;;7.13;5.93;;;1.80;99.90;;;;;;5041389;28;20410;-82
2021/01/27 03:23:49;;;;;;;8.27;6.20;;;2.00;99.90;;;;;;5054328;28;20422;-82
2021/01/27 03:26:31;;;;;;;7.30;5.90;;;2.10;99.90;;;;;;5061608;28;20514;-82
2021/01/27 03:29:05;;;;;;;7.67;6.13;;;2.20;99.90;;;;;;5061288;28;20410;-82
2021/01/27 03:31:30;;;;;;;5.63;5.10;;;2.20;99.90;;;;;;5061413;28;20398;-81
2021/01/27 03:34:07;;;;;;;6.37;5.27;;;2.20;99.90;;;;;;5059317;28;20406;-83
2021/01/27 03:36:40;;;;;;;5.47;4.43;;;2.10;99.90;;;;;;5060718;28;20172;-82
2021/01/27 03:39:10;;;;;;;5.83;5.30;;;1.80;99.90;;;;;;5058670;28;20418;-82
2021/01/27 03:41:49;;;;;;;5.50;5.00;;;1.70;99.90;;;;;;5060135;28;20402;-81
2021/01/27 03:44:22;;;;;;;9.20;5.40;;;1.90;99.90;;;;;;5042339;28;20419;-82
2021/01/27 03:47:13;;;;;;;6.20;4.70;;;2.00;99.90;;;;;;5040674;28;20400;-83
2021/01/27 03:50:02;;;;;;;5.30;4.07;;;2.00;99.90;;;;;;5040607;28;20388;-82
2021/01/27 03:52:35;;;;;;;10.17;4.23;;;1.80;99.90;;;;;;5043079;28;20433;-82
2021/01/27 03:55:09;;;;;;;4.70;4.23;;;1.60;99.90;;;;;;5060312;28;20391;-82
2021/01/27 03:57:41;;;;;;;10.37;5.73;;;1.70;99.90;;;;;;5061094;28;20467;-81
2021/01/27 04:00:09;;;;;;;5.67;5.10;;;1.80;99.90;;;;;;5060170;28;20391;-82
2021/01/27 04:02:34;;;;;;;7.27;5.87;;;1.70;99.90;;;;;;5057200;28;20905;-81
2021/01/27 04:05:00;;;;;;;5.37;4.83;;;1.60;99.90;;;;;;5039686;28;20444;-81
2021/01/27 04:07:26;;;;;;;6.83;4.83;;;1.70;99.90;;;;;;5040023;28;20173;-81
2021/01/27 04:09:52;;;;;;;5.60;5.00;;;1.70;99.90;;;;;;5040346;28;20164;-81
2021/01/27 04:12:18;;;;;;;6.23;5.63;;;1.60;99.90;;;;;;5040940;28;20161;-82
2021/01/27 04:14:43;;;;;;;6.15;5.53;;;1.80;99.90;;;;;;5060443;28;20753;-82
2021/01/27 04:17:14;;;;;;;7.23;6.50;;;1.80;99.90;;;;;;5060350;28;20167;-82
2021/01/27 04:19:40;;;;;;;6.00;4.40;;;1.90;99.90;;;;;;5060079;28;20235;-82
2021/01/27 04:22:06;;;;;;;4.10;3.70;;;2.00;99.90;;;;;;5060449;28;20735;-81
2021/01/27 04:24:31;;;;;;;9.77;5.57;;;2.00;99.90;;;;;;5059835;28;20619;-82
2021/01/27 04:26:57;;;;;;;4.63;4.23;;;2.00;99.90;;;;;;5060498;28;20175;-82
2021/01/27 04:29:23;;;;;;;6.07;4.43;;;1.90;99.90;;;;;;5060102;28;20164;-82
2021/01/27 04:31:49;;;;;;;5.00;4.23;;;1.60;99.90;;;;;;5058438;28;20231;-82
2021/01/27 04:34:14;;;;;;;6.00;5.60;;;1.60;99.90;;;;;;5043830;28;20172;-81
2021/01/27 04:36:40;;;;;;;5.33;4.93;;;1.70;99.90;;;;;;5040505;28;20601;-81
2021/01/27 04:39:06;;;;;;;5.37;4.87;;;1.60;99.90;;;;;;5040244;28;20547;-82
2021/01/27 04:41:32;;;;;;;11.07;5.33;;;1.30;99.90;;;;;;5040352;28;20168;-82
2021/01/27 04:43:58;;;;;;;8.13;5.17;;;1.40;99.90;;;;;;5053609;28;20798;-82
2021/01/27 04:46:32;;;;;;;5.50;5.00;;;1.40;99.90;;;;;;5048032;28;20206;-81
2021/01/27 04:49:23;;;;;;;5.37;4.90;;;1.50;99.90;;;;;;5039894;28;20165;-82
2021/01/27 04:51:57;;;;;;;7.80;7.10;;;1.10;99.90;;;;;;5038596;28;20403;-81
2021/01/27 04:54:41;;;;;;;8.70;6.53;;;1.20;99.90;;;;;;5053562;28;20463;-82
2021/01/27 04:57:23;;;;;;;10.77;6.17;;;1.00;99.90;;;;;;5064245;28;20395;-82
2021/01/27 05:00:13;;;;;;;4.93;4.43;;;0.80;99.90;;;;;;5063147;28;20399;-82
2021/01/27 05:02:56;;;;;;;6.33;5.67;;;0.80;99.90;;;;;;5056644;28;20479;-82
2021/01/27 05:05:28;;;;;;;6.73;5.50;;;0.70;99.90;;;;;;5032342;28;20462;-82
2021/01/27 05:08:06;;;;;;;8.27;6.27;;;0.60;99.90;;;;;;5044945;28;20846;-81
2021/01/27 05:10:39;;;;;;;8.67;6.50;;;0.80;99.90;;;;;;5051194;28;20780;-82
2021/01/27 05:13:29;;;;;;;9.03;5.10;;;0.80;99.90;;;;;;5065307;28;20782;-82
2021/01/27 05:15:57;;;;;;;7.40;6.03;;;0.90;99.90;;;;;;5061780;28;20774;-82
2021/01/27 05:18:23;;;;;;;5.10;4.13;;;0.70;99.90;;;;;;5062284;28;20561;-82
2021/01/27 05:20:50;;;;;;;8.50;7.17;;;0.60;99.90;;;;;;5062686;28;20445;-82
2021/01/27 05:23:18;;;;;;;7.53;6.73;;;0.70;99.90;;;;;;5063577;28;20190;-82
2021/01/27 05:25:47;;;;;;;7.53;6.30;;;0.90;99.90;;;;;;5067263;28;20461;-81
2021/01/27 05:28:21;;;;;;;7.40;5.87;;;0.70;99.90;;;;;;5075533;28;20498;-82
2021/01/27 05:30:54;;;;;;;13.57;6.97;;;1.00;99.90;;;;;;5070171;28;20421;-81
2021/01/27 05:33:40;;;;;;;8.30;7.53;;;1.20;99.90;;;;;;5033533;28;20403;-81
2021/01/27 05:36:07;;;;;;;6.00;5.50;;;1.10;99.90;;;;;;5078105;28;20433;-80
2021/01/27 05:38:33;;;;;;;11.00;7.00;;;1.00;99.90;;;;;;5066452;28;20399;-83
2021/01/27 05:41:10;;;;;;;10.40;5.50;;;0.80;99.90;;;;;;5062434;28;20473;-83
2021/01/27 05:43:37;;;;;;;13.73;5.57;;;0.90;99.90;;;;;;5057401;28;20191;-83
2021/01/27 05:46:28;;;;;;;9.67;6.30;;;0.70;99.90;;;;;;5042728;28;20859;-83
2021/01/27 05:48:54;;;;;;;8.87;6.00;;;0.60;99.90;;;;;;5043524;28;20404;-84
2021/01/27 05:51:33;;;;;;;7.80;6.43;;;0.40;99.90;;;;;;5043641;28;20457;-83
2021/01/27 05:54:01;;;;;;;10.37;6.10;;;0.40;99.90;;;;;;5031218;28;20407;-81
2021/01/27 05:56:28;;;;;;;10.13;7.80;;;0.50;99.90;;;;;;5043424;28;20481;-83
2021/01/27 05:59:04;;;;;;;9.80;6.63;;;0.70;99.90;;;;;;5042558;28;20399;-83
2021/01/27 06:01:42;;;;;;;6.77;5.97;;;0.80;99.90;;;;;;5042162;28;20978;-83
2021/01/27 06:04:18;;;;;;;8.63;4.30;;;0.60;99.90;;;;;;5051792;28;20421;-82
2021/01/27 06:07:05;;;;;;;7.30;5.70;;;0.40;99.90;;;;;;5065207;28;20463;-82
2021/01/27 06:09:40;;;;;;;11.45;9.50;;;0.20;99.90;;;;;;5028059;28;20412;-85
2021/01/27 06:12:28;;;;;;;8.47;6.13;;;0.20;99.90;;;;;;5034372;28;20175;-84
2021/01/27 06:15:11;;;;;;;5.93;4.87;;;0.10;99.90;;;;;;5044477;28;20511;-84
2021/01/27 06:17:49;;;;;;;10.13;6.27;;;0.20;99.90;;;;;;5043905;28;20407;-84
2021/01/27 06:20:30;;;;;;;21.40;7.07;;;0.30;99.90;;;;;;5045239;28;20884;-84
2021/01/27 06:23:16;;;;;;;15.20;7.57;;;0.50;99.90;;;;;;5045538;28;20877;-85
2021/01/27 06:26:08;;;;;;;7.53;6.80;;;0.50;99.90;;;;;;5039471;28;20551;-84
2021/01/27 06:28:51;;;;;;;9.40;6.40;;;0.20;99.90;;;;;;5027253;28;20409;-83
2021/01/27 06:31:34;;;;;;;9.13;6.93;;;0.40;99.90;;;;;;5044822;28;20437;-84
2021/01/27 06:34:19;;;;;;;5.87;5.30;;;0.10;99.90;;;;;;5046192;28;20518;-84
2021/01/27 06:37:07;;;;;;;9.70;6.67;;;0.00;99.90;;;;;;5046472;28;20399;-84
2021/01/27 06:39:58;;;;;;;8.83;6.70;;;-0.10;99.90;;;;;;5046232;28;20403;-83
2021/01/27 06:43:00;;;;;;;10.40;6.30;;;-0.10;99.90;;;;;;5046932;28;20859;-84
2021/01/27 06:45:51;;;;;;;10.90;7.27;;;0.00;99.90;;;;;;5045806;28;20450;-81
2021/01/27 06:48:36;;;;;;;10.60;7.40;;;-0.10;99.90;;;;;;5046537;28;20391;-82
2021/01/27 06:51:34;;;;;;;10.80;5.80;;;0.00;99.90;;;;;;5046177;28;20414;-82
2021/01/27 06:54:26;;;;;;;9.67;7.33;;;-0.20;99.90;;;;;;5053097;28;20413;-83
2021/01/27 06:57:15;;;;;;;6.80;6.20;;;-0.30;99.90;;;;;;5075824;28;20419;-80
2021/01/27 06:59:56;;;;;;;7.47;6.73;;;-0.30;99.90;;;;;;5069006;28;20365;-80
2021/01/27 07:02:48;;;;;;;15.10;6.57;;;-0.30;99.90;;;;;;5039322;28;20419;-84
2021/01/27 07:05:45;;;;;;;15.87;7.97;;;-0.30;99.90;;;;;;5041073;28;20513;-82
2021/01/27 07:08:31;;;;;;;12.97;6.30;;;-0.10;99.90;;;;;;5041126;28;20378;-83
2021/01/27 07:11:27;;;;;;;7.90;6.03;;;-0.10;99.90;;;;;;5041638;28;20542;-83
2021/01/27 07:14:07;;;;;;;13.43;8.07;;;-0.10;99.90;;;;;;5042314;28;20420;-82
2021/01/27 07:17:05;;;;;;;12.40;6.97;;;0.00;99.90;;;;;;5042205;28;20445;-83
2021/01/27 07:20:01;;;;;;;8.20;6.20;;;0.10;99.90;;;;;;5042162;28;20467;-81
2021/01/27 07:22:42;;;;;;;9.17;6.73;;;0.10;99.90;;;;;;5048495;28;20454;-82
2021/01/27 07:25:45;;;;;;;16.20;9.63;;;0.20;99.90;;;;;;5047755;28;20950;-81
2021/01/27 07:28:26;;;;;;;9.03;7.40;;;0.10;99.90;;;;;;5042608;28;20465;-82
2021/01/27 07:31:11;;;;;;;8.03;5.87;;;0.10;99.90;;;;;;5043494;28;20420;-82
2021/01/27 07:33:47;;;;;;;7.10;6.23;;;0.00;99.90;;;;;;5040444;28;20475;-82
2021/01/27 07:36:32;;;;;;;8.53;6.53;;;0.10;99.90;;;;;;5042431;28;20477;-82
2021/01/27 07:39:03;;;;;;;19.20;9.07;;;0.00;99.90;;;;;;5031461;28;20443;-82
2021/01/27 07:41:42;;;;;;;11.20;7.77;;;0.20;99.90;;;;;;5032560;28;20433;-80
2021/01/27 07:44:15;;;;;;;14.87;8.03;;;0.40;99.90;;;;;;5039891;28;20865;-81
2021/01/27 07:46:50;;;;;;;9.47;5.60;;;0.70;99.90;;;;;;5036779;28;20820;-82
2021/01/27 07:49:24;;;;;;;15.33;9.00;;;0.80;99.90;;;;;;5031115;28;20443;-82
2021/01/27 07:51:56;;;;;;;11.23;8.53;;;0.60;99.90;;;;;;5034757;28;20837;-82
2021/01/27 07:54:40;;;;;;;7.93;6.93;;;0.50;99.90;;;;;;5032675;28;20478;-82
2021/01/27 07:57:35;;;;;;;8.43;7.10;;;0.50;99.90;;;;;;5037810;28;20459;-82
2021/01/27 08:00:10;;;;;;;7.33;6.13;;;0.30;99.90;;;;;;5034606;28;20800;-81
2021/01/27 08:02:54;;;;;;;13.83;6.70;;;0.30;99.90;;;;;;5045800;28;20434;-81
2021/01/27 08:05:20;;;;;;;9.07;6.67;;;0.20;99.90;;;;;;5029681;28;20459;-82
2021/01/27 08:08:01;;;;;;;11.53;8.23;;;0.20;99.90;;;;;;5035717;28;20434;-83
2021/01/27 08:10:30;;;;;;;13.20;6.80;;;0.60;99.90;;;;;;5038978;28;20423;-83
2021/01/27 08:13:00;;;;;;;12.77;7.97;;;0.30;99.90;;;;;;5037852;28;20466;-83
2021/01/27 08:15:58;;;;;;;10.53;7.67;;;0.40;99.90;;;;;;5039367;28;20941;-83
2021/01/27 08:18:25;;;;;;;9.47;8.57;;;0.60;99.90;;;;;;5031668;28;20558;-83
2021/01/27 08:21:22;;;;;;;7.77;6.60;;;0.80;99.90;;;;;;5035933;28;20522;-83
2021/01/27 08:23:49;;;;;;;10.77;6.00;;;1.00;99.90;;;;;;5046727;28;20419;-83
2021/01/27 08:26:49;;;;;;;14.57;8.33;;;0.90;99.90;;;;;;5042546;28;20552;-80
2021/01/27 08:29:26;;;;;;;8.10;6.80;;;0.90;99.90;;;;;;5048961;28;20446;-83
2021/01/27 08:32:29;;;;;;;14.83;7.40;;;0.90;99.90;;;;;;5036174;28;20419;-83
2021/01/27 08:35:08;;;;;;;11.27;7.37;;;1.00;99.90;;;;;;5043058;28;20537;-83
2021/01/27 08:37:37;;;;;;;6.80;6.10;;;0.70;99.90;;;;;;5042212;28;20480;-81
2021/01/27 08:40:15;;;;;;;9.53;7.07;;;0.70;99.90;;;;;;5037201;28;20431;-83
2021/01/27 08:42:46;;;;;;;8.37;7.57;;;0.70;99.90;;;;;;5039831;28;20942;-82
2021/01/27 08:45:29;;;;;;;10.97;6.70;;;0.80;99.90;;;;;;5041924;28;20561;-83
2021/01/27 08:48:00;;;;;;;17.58;11.68;;;0.70;99.90;;;;;;5038897;28;20421;-83
2021/01/27 08:50:44;;;;;;;16.43;9.47;;;0.80;99.90;;;;;;5033825;28;20196;-82
2021/01/27 08:53:27;;;;;;;11.87;8.07;;;0.80;99.90;;;;;;5040238;28;20923;-82
2021/01/27 08:55:57;;;;;;;7.70;6.90;;;0.80;99.90;;;;;;5038534;28;20514;-82
2021/01/27 08:58:27;;;;;;;16.20;8.03;;;0.90;99.90;;;;;;5038009;28;20431;-82
2021/01/27 09:00:57;;;;;;;15.20;6.73;;;0.80;99.90;;;;;;5038328;28;20434;-83
2021/01/27 09:03:56;;;;;;;16.63;9.70;;;0.80;99.90;;;;;;5041768;28;20482;-82
2021/01/27 09:06:34;;;;;;;19.10;9.73;;;1.40;99.90;;;;;;5027345;28;20809;-81
2021/01/27 09:09:26;;;;;;;9.00;8.10;;;1.40;99.90;;;;;;5030183;28;20427;-82
2021/01/27 09:11:58;;;;;;;11.87;7.00;;;1.20;99.90;;;;;;5037771;28;20493;-81
2021/01/27 09:14:24;;;;;;;14.10;8.40;;;1.10;99.90;;;;;;5042387;28;20570;-83
2021/01/27 09:16:52;;;;;;;10.30;8.77;;;1.30;99.90;;;;;;5038512;28;20424;-82
2021/01/27 09:19:21;;;;;;;10.20;7.10;;;0.80;99.90;;;;;;5045031;28;20476;-83
2021/01/27 09:22:05;;;;;;;8.33;7.40;;;1.10;99.90;;;;;;5031856;28;20419;-82
2021/01/27 09:24:37;;;;;;;9.23;8.37;;;1.30;99.90;;;;;;5042288;28;20453;-82
2021/01/27 09:27:18;;;;;;;14.30;8.50;;;1.20;99.90;;;;;;5000487;28;20425;-83
2021/01/27 09:29:45;;;;;;;12.43;8.23;;;1.20;99.90;;;;;;5054574;28;20430;-82
2021/01/27 09:32:17;;;;;;;15.97;7.50;;;1.50;99.90;;;;;;5034971;28;20439;-82
2021/01/27 09:34:44;;;;;;;11.50;7.10;;;1.60;99.90;;;;;;5039511;28;20525;-82
2021/01/27 09:37:16;;;;;;;8.60;7.10;;;1.80;99.90;;;;;;5046805;28;20419;-82
2021/01/27 09:39:49;;;;;;;7.03;5.33;;;1.90;99.90;;;;;;5035982;28;20514;-83
2021/01/27 09:42:23;;;;;;;9.10;6.40;;;2.00;99.90;;;;;;5031469;28;20452;-82
2021/01/27 09:44:58;;;;;;;13.37;7.73;;;2.20;99.90;;;;;;5038264;28;20462;-82
2021/01/27 09:47:24;;;;;;;6.60;4.07;;;1.90;99.90;;;;;;5042767;28;20446;-83
2021/01/27 09:49:53;;;;;;;12.95;8.95;;;1.80;99.90;;;;;;5050146;28;20437;-79
2021/01/27 09:52:20;;;;;;;9.63;6.00;;;2.40;99.90;;;;;;5046847;28;20476;-82
2021/01/27 09:54:51;;;;;;;7.60;6.57;;;2.40;99.90;;;;;;5044076;28;20491;-83
2021/01/27 09:57:23;;;;;;;8.00;6.27;;;2.20;99.90;;;;;;5037174;28;20421;-83
2021/01/27 09:59:53;;;;;;;9.80;6.10;;;2.30;99.90;;;;;;5043613;28;20436;-83
2021/01/27 10:02:28;;;;;;;15.90;9.20;;;2.40;99.90;;;;;;5044437;28;20404;-83
2021/01/27 10:04:54;;;;;;;9.93;8.53;;;2.20;99.90;;;;;;5047554;28;20283;-83
2021/01/27 10:07:30;;;;;;;11.37;7.53;;;2.00;99.90;;;;;;5048301;28;20424;-83
2021/01/27 10:10:15;;;;;;;9.60;6.63;;;2.10;99.90;;;;;;5051598;28;20415;-82
2021/01/27 10:12:42;;;;;;;9.87;7.10;;;2.50;99.90;;;;;;5046659;28;20394;-84
2021/01/27 10:15:18;;;;;;;8.53;6.47;;;2.30;99.90;;;;;;5052608;28;20438;-83
2021/01/27 10:17:52;;;;;;;9.33;6.43;;;2.10;99.90;;;;;;5024082;28;20454;-83
2021/01/27 10:20:25;;;;;;;8.17;6.87;;;1.70;99.90;;;;;;5038438;28;20439;-82
2021/01/27 10:22:58;;;;;;;9.43;7.10;;;1.80;99.90;;;;;;5040935;28;20436;-83
2021/01/27 10:25:34;;;;;;;12.10;7.57;;;1.80;99.90;;;;;;5039482;28;20197;-83
2021/01/27 10:28:23;;;;;;;7.13;5.50;;;1.80;99.90;;;;;;5045735;28;20423;-81
2021/01/27 10:30:56;;;;;;;16.73;6.77;;;1.80;99.90;;;;;;5052477;28;20428;-81
2021/01/27 10:33:47;;;;;;;7.90;6.00;;;1.70;99.90;;;;;;5053668;28;20427;-81
2021/01/27 10:36:43;;;;;;;7.10;5.67;;;1.90;99.90;;;;;;5051332;28;20432;-80
2021/01/27 10:39:11;;;;;;;8.33;5.80;;;1.80;99.90;;;;;;5044781;28;20433;-79
2021/01/27 10:41:37;;;;;;;7.60;6.70;;;2.00;99.90;;;;;;5047014;28;20404;-83
2021/01/27 10:44:17;;;;;;;10.33;7.00;;;1.90;99.90;;;;;;5053909;28;20439;-80
2021/01/27 10:46:43;;;;;;;6.63;5.00;;;1.70;99.90;;;;;;5052411;28;20501;-79
2021/01/27 10:49:09;;;;;;;7.20;5.63;;;1.50;99.90;;;;;;5049467;28;20426;-81
2021/01/27 10:51:35;;;;;;;10.43;7.00;;;1.60;99.90;;;;;;5050080;28;20503;-80
2021/01/27 10:54:02;;;;;;;10.82;7.35;;;2.00;99.90;;;;;;5046987;28;20501;-81
2021/01/27 10:56:28;;;;;;;9.67;7.40;;;2.20;99.90;;;;;;5041436;28;20284;-82
2021/01/27 10:58:53;;;;;;;9.40;8.17;;;2.40;99.90;;;;;;5043035;28;20459;-82
2021/01/27 11:01:19;;;;;;;9.27;7.03;;;2.70;99.90;;;;;;5035671;28;20643;-81
2021/01/27 11:03:45;;;;;;;11.83;7.27;;;3.10;99.90;;;;;;5035402;28;20226;-81
2021/01/27 11:06:12;;;;;;;9.43;7.07;;;3.00;99.90;;;;;;5038690;28;20223;-83
2021/01/27 11:08:43;;;;;;;9.63;6.57;;;3.00;99.90;;;;;;5013718;28;20204;-82
2021/01/27 11:11:10;;;;;;;11.77;6.80;;;2.80;99.90;;;;;;5023646;28;20439;-82
2021/01/27 11:13:35;;;;;;;11.63;6.60;;;2.60;99.90;;;;;;5036293;28;20427;-83
2021/01/27 11:16:03;;;;;;;7.60;6.73;;;2.60;99.90;;;;;;5038861;28;20425;-82
2021/01/27 11:18:29;;;;;;;9.77;6.87;;;2.40;99.90;;;;;;5037666;28;20228;-83
2021/01/27 11:20:55;;;;;;;5.80;5.20;;;2.30;99.90;;;;;;5037378;28;20922;-83
2021/01/27 11:23:21;;;;;;;9.03;6.57;;;2.20;99.90;;;;;;5040601;28;20492;-83
2021/01/27 11:25:49;;;;;;;9.03;6.60;;;2.30;99.90;;;;;;5038528;28;20523;-83
2021/01/27 11:28:15;;;;;;;9.93;6.17;;;2.40;99.90;;;;;;5032488;28;20482;-83
2021/01/27 11:30:41;;;;;;;7.10;6.37;;;2.60;99.90;;;;;;5031190;28;20448;-83
2021/01/27 11:33:07;;;;;;;8.43;6.93;;;2.80;99.90;;;;;;5037057;28;20443;-83
2021/01/27 11:35:33;;;;;;;7.30;6.30;;;2.60;99.90;;;;;;5036849;28;20398;-83
2021/01/27 11:38:01;;;;;;;7.90;7.10;;;2.50;99.90;;;;;;5036517;28;20184;-83
2021/01/27 11:40:28;;;;;;;6.83;5.70;;;2.30;99.90;;;;;;5039531;28;20507;-83
2021/01/27 11:42:54;;;;;;;6.53;5.80;;;2.20;99.90;;;;;;5036499;28;20427;-83
2021/01/27 11:45:21;;;;;;;11.53;7.80;;;2.50;99.90;;;;;;5040320;28;20441;-83
2021/01/27 11:47:48;;;;;;;11.00;6.43;;;2.50;99.90;;;;;;5040278;28;20790;-83
2021/01/27 11:50:18;;;;;;;11.30;6.40;;;2.60;99.90;;;;;;5045337;28;20447;-82
2021/01/27 11:53:03;;;;;;;10.63;6.70;;;2.70;99.90;;;;;;5049477;28;20419;-81
2021/01/27 11:55:29;;;;;;;15.10;6.23;;;2.60;99.90;;;;;;5034620;28;20591;-81
2021/01/27 11:57:55;;;;;;;7.90;7.07;;;2.50;99.90;;;;;;5016089;28;20996;-82
2021/01/27 12:00:24;;;;;;;9.37;7.00;;;2.70;99.90;;;;;;5016095;28;20247;-81
2021/01/27 12:02:50;;;;;;;7.93;5.63;;;2.90;99.90;;;;;;5015648;28;20183;-82
2021/01/27 12:05:19;;;;;;;10.17;6.60;;;3.00;99.90;;;;;;5016266;28;20467;-82
2021/01/27 12:07:44;;;;;;;9.00;5.80;;;2.90;99.90;;;;;;5013767;28;20238;-83
2021/01/27 12:10:11;;;;;;;5.97;4.83;;;3.10;99.90;;;;;;5014409;28;20447;-82
2021/01/27 12:12:36;;;;;;;8.90;4.03;;;3.00;99.90;;;;;;5015373;28;20646;-81
2021/01/27 12:15:04;;;;;;;6.63;5.13;;;3.00;99.90;;;;;;5013374;28;20559;-80
2021/01/27 12:17:30;;;;;;;7.33;5.47;;;3.30;99.90;;;;;;5012475;28;20181;-81
2021/01/27 12:19:56;;;;;;;5.70;5.17;;;3.30;99.90;;;;;;5022239;28;20528;-81
2021/01/27 12:22:21;;;;;;;5.40;4.90;;;3.40;99.90;;;;;;5022462;28;20448;-83
2021/01/27 12:24:47;;;;;;;5.20;4.50;;;2.80;99.90;;;;;;5005038;28;20189;-83
2021/01/27 12:27:13;;;;;;;7.20;4.53;;;2.60;99.90;;;;;;5031239;28;20204;-83
2021/01/27 12:29:41;;;;;;;5.90;3.97;;;2.40;99.90;;;;;;5035907;28;20183;-82
2021/01/27 12:32:07;;;;;;;9.40;4.73;;;2.80;99.90;;;;;;5037810;28;20172;-83
2021/01/27 12:34:33;;;;;;;4.87;4.30;;;2.80;99.90;;;;;;5036355;28;20439;-82
2021/01/27 12:37:00;;;;;;;7.80;4.77;;;3.00;99.90;;;;;;5036789;28;20187;-82
2021/01/27 12:39:26;;;;;;;11.57;5.60;;;3.20;99.90;;;;;;5037109;28;20283;-81
2021/01/27 12:41:52;;;;;;;5.10;4.60;;;2.80;99.90;;;;;;5026087;28;20454;-82
2021/01/27 12:44:18;;;;;;;7.20;4.60;;;2.80;99.90;;;;;;5036855;28;20231;-82
2021/01/27 12:46:44;;;;;;;5.50;5.00;;;3.00;99.90;;;;;;5043388;28;20360;-81
2021/01/27 12:49:09;;;;;;;5.17;4.37;;;3.00;99.90;;;;;;5028335;28;20166;-80
2021/01/27 12:51:35;;;;;;;5.43;4.93;;;2.70;99.90;;;;;;5035244;28;20228;-81
2021/01/27 12:54:01;;;;;;;12.90;5.10;;;3.00;99.90;;;;;;5032572;28;20188;-83
2021/01/27 12:56:27;;;;;;;6.83;4.80;;;3.10;99.90;;;;;;5026455;28;20188;-82
2021/01/27 12:58:53;;;;;;;5.57;4.63;;;2.70;99.90;;;;;;5023799;28;20180;-80
2021/01/27 13:01:20;;;;;;;4.77;4.37;;;3.10;99.90;;;;;;5036600;28;20216;-81
2021/01/27 13:03:46;;;;;;;8.77;5.15;;;2.80;99.90;;;;;;5032466;28;20446;-80
2021/01/27 13:06:14;;;;;;;9.20;6.03;;;2.90;99.90;;;;;;5030945;28;20552;-80
2021/01/27 13:08:41;;;;;;;7.60;5.80;;;3.10;99.90;;;;;;5041256;28;20179;-81
2021/01/27 13:11:07;;;;;;;9.47;6.20;;;2.60;99.90;;;;;;5041342;28;20458;-81
2021/01/27 13:13:33;;;;;;;10.20;6.93;;;3.00;99.90;;;;;;5042421;28;20478;-80
2021/01/27 13:15:58;;;;;;;16.23;8.17;;;2.80;99.90;;;;;;5034664;28;20467;-80
2021/01/27 13:18:25;;;;;;;7.00;5.17;;;2.70;99.90;;;;;;5050541;28;20228;-81
2021/01/27 13:20:51;;;;;;;5.33;4.80;;;2.70;99.90;;;;;;5047885;28;20180;-81
2021/01/27 13:23:17;;;;;;;7.17;5.60;;;2.60;99.90;;;;;;5046827;28;20462;-81
2021/01/27 13:25:45;;;;;;;7.70;6.10;;;2.70;99.90;;;;;;5043874;28;20470;-79
2021/01/27 13:28:12;;;;;;;5.87;5.20;;;2.70;99.90;;;;;;5042899;28;20423;-81
2021/01/27 13:30:58;;;;;;;7.67;5.33;;;2.90;99.90;;;;;;5062383;28;20191;-81